createdAt,value
2022-10-19T00:01:07.139Z,1.30
2022-10-19T00:03:35.111Z,1.08
2022-10-19T00:06:11.204Z,1.27
2022-10-19T00:08:38.629Z,1.05
2022-10-19T00:11:05.970Z,1.48
2022-10-19T00:13:33.250Z,1.63
2022-10-19T00:16:00.514Z,1.27
2022-10-19T00:18:27.819Z,0.93
2022-10-19T00:21:02.838Z,0.88
2022-10-19T00:23:30.060Z,0.80
2022-10-19T00:25:57.682Z,0.70
2022-10-19T00:28:25.324Z,0.70
2022-10-19T00:30:52.620Z,0.85
2022-10-19T00:33:22.457Z,0.57
2022-10-19T00:35:50.436Z,0.80
2022-10-19T00:38:18.434Z,0.38
2022-10-19T00:40:45.755Z,0.93
2022-10-19T00:43:24.280Z,0.80
2022-10-19T00:45:51.817Z,0.30
2022-10-19T00:48:25.884Z,0.57
2022-10-19T00:50:55.003Z,0.40
2022-10-19T00:53:22.674Z,0.50
2022-10-19T00:55:49.981Z,0.82
2022-10-19T00:58:17.265Z,0.40
2022-10-19T01:00:44.789Z,0.35
2022-10-19T01:03:12.862Z,0.55
2022-10-19T01:05:40.324Z,0.40
2022-10-19T01:08:09.453Z,0.50
2022-10-19T01:11:01.785Z,0.40
2022-10-19T01:13:47.461Z,0.60
2022-10-19T01:16:33.563Z,0.70
2022-10-19T01:19:00.770Z,0.70
2022-10-19T01:21:49.845Z,0.60
2022-10-19T01:24:27.509Z,0.50
2022-10-19T01:26:57.593Z,0.98
2022-10-19T01:29:44.542Z,0.52
2022-10-19T01:32:37.862Z,0.40
2022-10-19T01:35:08.195Z,1.02
2022-10-19T01:37:44.723Z,0.60
2022-10-19T01:40:15.723Z,0.25
2022-10-19T01:43:08.660Z,0.75
2022-10-19T01:45:53.250Z,0.50
2022-10-19T01:48:25.819Z,0.20
2022-10-19T01:51:11.857Z,0.30
2022-10-19T01:53:42.123Z,0.30
2022-10-19T01:56:09.955Z,0.20
2022-10-19T01:58:38.542Z,0.40
2022-10-19T02:01:08.302Z,0.50
2022-10-19T02:03:36.521Z,0.30
2022-10-19T02:06:05.456Z,0.25
2022-10-19T02:08:38.955Z,0.38
2022-10-19T02:11:06.979Z,0.10
2022-10-19T02:13:34.218Z,0.20
2022-10-19T02:16:04.763Z,0.40
2022-10-19T02:18:35.046Z,0.30
2022-10-19T02:21:03.438Z,0.40
2022-10-19T02:23:30.927Z,0.20
2022-10-19T02:25:58.665Z,0.38
2022-10-19T02:30:59.405Z,0.50
2022-10-19T02:33:27.214Z,0.30
2022-10-19T02:35:54.494Z,0.30
2022-10-19T02:38:23.561Z,0.20
2022-10-19T02:40:55.658Z,0.28
2022-10-19T02:43:24.211Z,0.30
2022-10-19T02:46:01.333Z,0.40
2022-10-19T02:48:29.837Z,0.50
2022-10-19T02:50:57.104Z,0.40
2022-10-19T02:53:24.351Z,0.30
2022-10-19T02:55:52.409Z,0.30
2022-10-19T02:58:19.674Z,0.43
2022-10-19T03:00:46.940Z,0.20
2022-10-19T03:03:14.225Z,0.43
2022-10-19T03:05:41.462Z,0.50
2022-10-19T03:08:08.690Z,0.57
2022-10-19T03:10:35.992Z,0.68
2022-10-19T03:13:03.239Z,0.93
2022-10-19T03:15:30.660Z,0.50
2022-10-19T03:17:58.132Z,0.60
2022-10-19T03:20:25.560Z,0.50
2022-10-19T03:25:25.105Z,0.50
2022-10-19T03:27:52.352Z,0.47
2022-10-19T03:30:19.572Z,0.40
2022-10-19T03:32:46.938Z,0.30
2022-10-19T03:35:14.151Z,0.32
2022-10-19T03:37:41.386Z,0.40
2022-10-19T03:40:08.893Z,0.60
2022-10-19T03:42:36.170Z,0.50
2022-10-19T03:45:03.858Z,0.63
2022-10-19T03:47:31.274Z,0.47
2022-10-19T03:49:58.631Z,0.30
2022-10-19T03:52:25.911Z,0.43
2022-10-19T03:54:53.165Z,0.52
2022-10-19T03:57:20.417Z,0.60
2022-10-19T03:59:47.697Z,0.68
2022-10-19T04:02:14.930Z,0.68
2022-10-19T04:04:42.161Z,0.63
2022-10-19T04:07:09.396Z,0.60
2022-10-19T04:09:36.727Z,0.50
2022-10-19T04:12:04.084Z,0.60
2022-10-19T04:14:32.695Z,0.50
2022-10-19T04:17:06.450Z,0.70
2022-10-19T04:19:33.759Z,0.40
2022-10-19T04:22:01.010Z,0.98
2022-10-19T04:24:28.581Z,0.60
2022-10-19T04:26:56.696Z,0.70
2022-10-19T04:29:27.963Z,0.63
2022-10-19T04:31:57.365Z,0.50
2022-10-19T04:34:24.637Z,0.60
2022-10-19T04:36:51.890Z,0.50
2022-10-19T04:39:19.203Z,0.50
2022-10-19T04:41:46.483Z,0.55
2022-10-19T04:44:13.908Z,0.50
2022-10-19T04:46:41.320Z,0.40
2022-10-19T04:49:08.660Z,0.40
2022-10-19T04:51:35.953Z,0.77
2022-10-19T04:54:04.026Z,0.50
2022-10-19T04:56:32.541Z,0.70
2022-10-19T04:59:00.812Z,0.70
2022-10-19T05:01:31.281Z,0.75
2022-10-19T05:04:02.024Z,0.70
2022-10-19T05:06:29.618Z,1.27
2022-10-19T05:08:57.046Z,1.60
2022-10-19T05:11:24.437Z,0.63
2022-10-19T05:13:51.994Z,0.40
2022-10-19T05:16:20.350Z,0.50
2022-10-19T05:18:49.106Z,1.50
2022-10-19T05:21:16.517Z,4.15
2022-10-19T05:23:43.874Z,6.13
2022-10-19T05:26:12.915Z,5.25
2022-10-19T05:28:40.312Z,6.05
2022-10-19T05:31:12.281Z,6.47
2022-10-19T05:33:39.944Z,1.10
2022-10-19T05:36:26.723Z,0.88
2022-10-19T05:38:54.949Z,0.63
2022-10-19T05:41:23.022Z,0.75
2022-10-19T05:43:54.273Z,0.30
2022-10-19T05:46:21.548Z,0.60
2022-10-19T05:48:48.863Z,0.80
2022-10-19T05:51:17.300Z,0.70
2022-10-19T05:53:44.889Z,0.50
2022-10-19T05:56:14.709Z,0.60
2022-10-19T05:58:41.982Z,0.70
2022-10-19T06:01:09.677Z,0.80
2022-10-19T06:03:36.945Z,0.70
2022-10-19T06:06:05.314Z,0.82
2022-10-19T06:08:32.620Z,0.80
2022-10-19T06:11:11.318Z,0.60
2022-10-19T06:13:39.115Z,0.52
2022-10-19T06:16:07.245Z,0.50
2022-10-19T06:18:34.686Z,0.60
2022-10-19T06:21:02.807Z,0.73
2022-10-19T06:23:30.393Z,0.55
2022-10-19T06:25:57.736Z,0.60
2022-10-19T06:28:25.174Z,0.60
2022-10-19T06:30:52.508Z,0.40
2022-10-19T06:33:22.811Z,0.57
2022-10-19T06:35:50.282Z,0.60
2022-10-19T06:38:17.607Z,0.40
2022-10-19T06:40:45.107Z,0.30
2022-10-19T06:43:12.338Z,0.30
2022-10-19T06:45:39.593Z,0.43
2022-10-19T06:48:07.965Z,0.30
2022-10-19T06:50:35.561Z,0.40
2022-10-19T06:53:02.870Z,0.63
2022-10-19T06:55:30.132Z,0.70
2022-10-19T06:57:58.860Z,0.63
2022-10-19T07:00:26.202Z,0.60
2022-10-19T07:02:53.488Z,0.50
2022-10-19T07:05:20.859Z,0.52
2022-10-19T07:07:48.185Z,0.68
2022-10-19T07:10:15.595Z,0.50
2022-10-19T07:12:42.844Z,0.43
2022-10-19T07:15:10.344Z,0.90
2022-10-19T07:17:37.665Z,0.60
2022-10-19T07:20:05.061Z,0.60
2022-10-19T07:22:32.277Z,0.70
2022-10-19T07:24:59.569Z,0.90
2022-10-19T07:27:30.293Z,0.95
2022-10-19T07:29:59.094Z,1.00
2022-10-19T07:32:26.346Z,0.50
2022-10-19T07:34:53.672Z,0.50
2022-10-19T07:37:21.019Z,0.30
2022-10-19T07:39:48.270Z,0.25
2022-10-19T07:42:15.539Z,0.40
2022-10-19T07:44:42.918Z,0.20
2022-10-19T07:47:10.230Z,0.40
2022-10-19T07:49:37.538Z,0.32
2022-10-19T07:52:05.548Z,0.40
2022-10-19T07:54:32.792Z,0.30
2022-10-19T07:57:00.096Z,0.40
2022-10-19T07:59:27.379Z,0.35
2022-10-19T08:01:57.371Z,0.30
2022-10-19T08:04:56.122Z,0.30
2022-10-19T08:07:12.038Z,0.50
2022-10-19T08:09:54.859Z,0.30
2022-10-19T08:12:22.216Z,0.50
2022-10-19T08:14:49.461Z,0.43
2022-10-19T08:17:17.852Z,0.45
2022-10-19T08:19:45.785Z,0.50
2022-10-19T08:22:13.380Z,0.50
2022-10-19T08:24:40.626Z,0.40
2022-10-19T08:27:07.926Z,0.30
2022-10-19T08:29:35.275Z,0.30
2022-10-19T08:32:02.557Z,0.20
2022-10-19T08:34:29.822Z,0.40
2022-10-19T08:36:57.052Z,0.40
2022-10-19T08:39:24.375Z,0.30
2022-10-19T08:41:51.628Z,0.40
2022-10-19T08:44:37.309Z,0.30
2022-10-19T08:47:14.115Z,0.20
2022-10-19T08:49:41.632Z,0.38
2022-10-19T08:52:12.745Z,0.32
2022-10-19T08:55:00.942Z,0.20
2022-10-19T08:57:46.711Z,0.40
2022-10-19T09:00:18.391Z,0.30
2022-10-19T09:02:51.759Z,0.28
2022-10-19T09:05:39.222Z,0.20
2022-10-19T09:08:08.108Z,0.20
2022-10-19T09:10:36.569Z,0.20
2022-10-19T09:13:12.166Z,0.40
2022-10-19T09:15:41.070Z,0.20
2022-10-19T09:18:34.419Z,0.38
2022-10-19T09:21:16.827Z,0.30
2022-10-19T09:23:48.108Z,0.50
2022-10-19T09:26:19.605Z,0.47
2022-10-19T09:28:49.683Z,0.50
2022-10-19T09:31:23.008Z,0.45
2022-10-19T09:33:52.948Z,0.60
2022-10-19T09:36:22.970Z,0.40
2022-10-19T09:38:55.059Z,0.20
2022-10-19T09:41:23.200Z,0.30
2022-10-19T09:43:56.557Z,0.25
2022-10-19T09:46:42.455Z,0.40
2022-10-19T09:49:09.786Z,0.20
2022-10-19T09:51:55.879Z,0.28
2022-10-19T09:54:34.298Z,0.30
2022-10-19T09:57:01.652Z,0.20
2022-10-19T09:59:34.682Z,0.25
2022-10-19T10:02:22.005Z,0.17
2022-10-19T10:05:05.002Z,0.38
2022-10-19T10:07:37.266Z,0.40
2022-10-19T10:10:10.914Z,0.50
2022-10-19T10:12:38.328Z,0.20
2022-10-19T10:15:06.994Z,0.20
2022-10-19T10:17:35.134Z,0.38
2022-10-19T10:20:05.217Z,3.60
2022-10-19T10:22:34.271Z,0.70
2022-10-19T10:25:02.101Z,0.50
2022-10-19T10:27:34.708Z,0.40
2022-10-19T10:30:07.394Z,0.30
2022-10-19T10:32:38.459Z,0.30
2022-10-19T10:35:08.681Z,0.52
2022-10-19T10:37:40.515Z,0.20
2022-10-19T10:40:17.096Z,0.30
2022-10-19T10:42:48.483Z,0.20
2022-10-19T10:45:21.253Z,0.25
2022-10-19T10:47:49.007Z,0.30
2022-10-19T10:50:20.956Z,0.20
2022-10-19T10:53:01.405Z,0.10
2022-10-19T10:55:29.330Z,0.20
2022-10-19T10:58:08.648Z,0.50
2022-10-19T11:00:38.938Z,0.57
2022-10-19T11:03:06.156Z,0.33
2022-10-19T11:05:35.323Z,0.32
2022-10-19T11:08:21.009Z,0.38
2022-10-19T11:10:57.078Z,0.20
2022-10-19T11:13:29.878Z,0.20
2022-10-19T11:16:14.683Z,0.68
2022-10-19T11:18:52.844Z,0.28
2022-10-19T11:21:40.367Z,0.30
2022-10-19T11:24:19.980Z,0.28
2022-10-19T11:26:59.368Z,0.20
2022-10-19T11:29:45.537Z,0.10
2022-10-19T11:32:24.422Z,0.20
2022-10-19T11:34:58.104Z,0.30
2022-10-19T11:37:25.373Z,0.38
2022-10-19T11:39:52.571Z,0.60
2022-10-19T11:42:25.805Z,0.40
2022-10-19T11:45:06.661Z,0.55
2022-10-19T11:47:53.878Z,0.50
2022-10-19T11:50:21.109Z,0.20
2022-10-19T11:52:53.864Z,0.30
2022-10-19T11:55:27.330Z,0.20
2022-10-19T11:58:05.320Z,0.10
2022-10-19T12:00:39.909Z,0.20
2022-10-19T12:03:22.802Z,0.20
2022-10-19T12:06:09.414Z,0.57
2022-10-19T12:08:36.863Z,0.40
2022-10-19T12:11:23.988Z,0.30
2022-10-19T12:13:57.360Z,0.40
2022-10-19T12:16:28.823Z,0.40
2022-10-19T12:18:58.577Z,0.38
2022-10-19T12:21:30.822Z,0.40
2022-10-19T12:23:59.697Z,0.50
2022-10-19T12:26:30.419Z,0.35
2022-10-19T12:29:01.150Z,0.60
2022-10-19T12:31:29.370Z,0.60
2022-10-19T12:33:59.342Z,0.55
2022-10-19T12:36:45.103Z,0.40
2022-10-19T12:39:12.343Z,0.50
2022-10-19T12:41:54.653Z,0.45
2022-10-19T12:44:30.714Z,0.52
2022-10-19T12:47:01.270Z,0.60
2022-10-19T12:49:31.739Z,0.63
2022-10-19T12:51:59.900Z,0.50
2022-10-19T12:54:28.556Z,0.30
2022-10-19T12:56:56.905Z,0.70
2022-10-19T12:59:29.050Z,0.60
2022-10-19T13:01:57.201Z,0.50
2022-10-19T13:04:28.641Z,0.50
2022-10-19T13:06:59.044Z,0.57
2022-10-19T13:09:29.458Z,0.40
2022-10-19T13:12:19.376Z,0.88
2022-10-19T13:14:49.586Z,1.40
2022-10-19T13:17:37.861Z,0.65
2022-10-19T13:20:14.397Z,0.50
2022-10-19T13:22:45.761Z,0.68
2022-10-19T13:27:40.447Z,0.40
2022-10-19T13:30:27.803Z,0.45
2022-10-19T13:32:55.115Z,0.50
2022-10-19T13:35:22.398Z,0.50
2022-10-19T13:38:19.041Z,0.70
2022-10-19T13:40:49.175Z,0.40
2022-10-19T13:43:20.668Z,0.30
2022-10-19T13:46:06.402Z,0.47
2022-10-19T13:48:56.728Z,0.43
2022-10-19T13:51:39.270Z,0.70
2022-10-19T13:54:26.796Z,0.80
2022-10-19T13:57:05.906Z,0.70
2022-10-19T13:59:41.561Z,0.70
2022-10-19T14:02:28.200Z,0.50
2022-10-19T14:04:55.438Z,0.80
2022-10-19T14:07:27.175Z,1.17
2022-10-19T14:10:07.972Z,0.70
2022-10-19T14:12:36.476Z,0.65
2022-10-19T14:15:12.590Z,0.60
2022-10-19T14:17:42.946Z,0.55
2022-10-19T14:20:28.508Z,0.68
2022-10-19T14:22:55.855Z,0.70
2022-10-19T14:25:25.522Z,0.63
2022-10-19T14:27:55.314Z,0.60
2022-10-19T14:30:26.869Z,0.55
2022-10-19T14:32:56.887Z,0.60
2022-10-19T14:35:35.129Z,0.55
2022-10-19T14:38:03.696Z,0.50
2022-10-19T14:40:32.164Z,1.05
2022-10-19T14:43:00.650Z,0.68
2022-10-19T14:45:31.998Z,1.10
2022-10-19T14:47:59.402Z,0.82
2022-10-19T14:50:33.373Z,0.80
2022-10-19T14:53:26.744Z,0.70
2022-10-19T14:55:55.419Z,0.45
2022-10-19T14:58:24.129Z,0.93
2022-10-19T15:00:52.192Z,0.50
2022-10-19T15:03:27.746Z,0.68
2022-10-19T15:06:03.349Z,0.70
2022-10-19T15:11:28.026Z,0.50
2022-10-19T15:14:01.190Z,0.60
2022-10-19T15:16:34.583Z,0.70
2022-10-19T15:19:06.016Z,0.60
2022-10-19T15:21:33.792Z,0.60
2022-10-19T15:24:27.574Z,0.52
2022-10-19T15:27:08.658Z,0.65
2022-10-19T15:29:36.578Z,0.88
2022-10-19T15:32:19.577Z,1.15
2022-10-19T15:34:47.170Z,0.70
2022-10-19T15:37:18.983Z,0.65
2022-10-19T15:39:46.344Z,0.68
2022-10-19T15:42:24.017Z,0.85
2022-10-19T15:44:51.327Z,0.70
2022-10-19T15:47:20.385Z,0.80
2022-10-19T15:49:53.740Z,0.65
2022-10-19T15:52:22.286Z,0.70
2022-10-19T15:54:59.430Z,0.82
2022-10-19T15:57:34.738Z,0.60
2022-10-19T16:00:13.324Z,0.60
2022-10-19T16:02:40.929Z,0.70
2022-10-19T16:05:08.312Z,0.60
2022-10-19T16:07:37.555Z,0.70
2022-10-19T16:10:05.339Z,0.43
2022-10-19T16:12:32.582Z,0.55
2022-10-19T16:14:59.933Z,0.40
2022-10-19T16:17:27.811Z,0.50
2022-10-19T16:19:55.050Z,0.80
2022-10-19T16:22:22.294Z,0.55
2022-10-19T16:24:49.562Z,0.50
2022-10-19T16:27:17.107Z,0.50
2022-10-19T16:29:45.086Z,0.68
2022-10-19T16:32:12.678Z,0.90
2022-10-19T16:34:40.631Z,0.93
2022-10-19T16:37:10.490Z,1.00
2022-10-19T16:39:37.716Z,0.73
2022-10-19T16:42:05.073Z,0.70
2022-10-19T16:44:32.488Z,0.98
2022-10-19T16:46:59.716Z,0.50
2022-10-19T16:49:27.449Z,0.63
2022-10-19T16:51:57.314Z,1.13
2022-10-19T16:54:26.847Z,0.93
2022-10-19T16:56:55.759Z,0.82
2022-10-19T16:59:23.469Z,0.80
2022-10-19T17:01:50.843Z,0.50
2022-10-19T17:04:18.382Z,0.50
2022-10-19T17:06:45.750Z,0.70
2022-10-19T17:12:00.300Z,0.60
2022-10-19T17:14:27.542Z,0.77
2022-10-19T17:16:54.796Z,0.60
2022-10-19T17:19:23.066Z,0.55
2022-10-19T17:21:50.662Z,0.80
2022-10-19T17:24:21.947Z,1.05
2022-10-19T17:29:16.865Z,0.70
2022-10-19T17:31:44.139Z,0.55
2022-10-19T17:34:11.523Z,0.55
2022-10-19T17:39:24.425Z,0.80
2022-10-19T17:41:55.219Z,0.68
2022-10-19T17:44:23.078Z,0.40
2022-10-19T17:46:50.401Z,0.50
2022-10-19T17:49:18.855Z,0.50
2022-10-19T17:51:46.200Z,0.65
2022-10-19T17:54:14.208Z,0.50
2022-10-19T17:56:45.111Z,0.70
2022-10-19T18:01:39.902Z,0.90
2022-10-19T18:04:07.427Z,0.90
2022-10-19T18:06:36.807Z,0.95
2022-10-19T18:09:06.013Z,1.08
2022-10-19T18:11:36.982Z,1.15
2022-10-19T18:14:04.737Z,1.05
2022-10-19T18:16:33.745Z,0.70
2022-10-19T18:19:02.241Z,0.60
2022-10-19T18:21:31.165Z,0.50
2022-10-19T18:23:59.557Z,0.63
2022-10-19T18:26:28.056Z,0.60
2022-10-19T18:28:55.809Z,0.75
2022-10-19T18:31:24.209Z,1.00
2022-10-19T18:33:56.576Z,0.75
2022-10-19T18:36:23.945Z,0.95
2022-10-19T18:38:52.037Z,0.90
2022-10-19T18:41:19.447Z,1.25
2022-10-19T18:43:50.766Z,1.27
2022-10-19T18:46:19.317Z,1.20
2022-10-19T18:48:46.613Z,0.88
2022-10-19T18:51:15.492Z,0.80
2022-10-19T18:53:43.254Z,0.60
2022-10-19T18:56:11.882Z,0.90
2022-10-19T18:58:39.634Z,0.68
2022-10-19T19:01:08.191Z,0.90
2022-10-19T19:03:35.871Z,0.73
2022-10-19T19:06:03.826Z,0.70
2022-10-19T19:08:31.393Z,0.63
2022-10-19T19:11:09.312Z,0.77
2022-10-19T19:13:36.541Z,0.90
2022-10-19T19:16:04.243Z,1.00
2022-10-19T19:18:33.825Z,0.70
2022-10-19T19:21:01.623Z,0.65
2022-10-19T19:23:29.041Z,0.50
2022-10-19T19:25:56.546Z,0.45
2022-10-19T19:28:23.845Z,0.40
2022-10-19T19:30:51.084Z,0.60
2022-10-19T19:33:18.378Z,0.30
2022-10-19T19:35:46.380Z,0.43
2022-10-19T19:38:14.553Z,0.60
2022-10-19T19:40:42.579Z,0.63
2022-10-19T19:43:10.540Z,0.70
2022-10-19T19:45:38.494Z,0.60
2022-10-19T19:48:06.166Z,0.50
2022-10-19T19:50:33.892Z,1.10
2022-10-19T19:53:01.479Z,0.95
2022-10-19T19:55:30.887Z,1.30
2022-10-19T19:57:59.458Z,0.93
2022-10-19T20:00:26.698Z,1.00
2022-10-19T20:02:54.419Z,1.20
2022-10-19T20:05:22.226Z,1.50
2022-10-19T20:07:49.716Z,1.40
2022-10-19T20:10:17.094Z,1.23
2022-10-19T20:12:47.851Z,1.13
2022-10-19T20:15:16.573Z,1.42
2022-10-19T20:17:44.095Z,1.60
2022-10-19T20:20:15.158Z,1.48
2022-10-19T20:22:46.263Z,1.20
2022-10-19T20:27:40.647Z,1.52
2022-10-19T20:30:08.173Z,1.83
2022-10-19T20:32:35.660Z,2.38
2022-10-19T20:35:03.856Z,3.35
2022-10-19T20:37:31.461Z,2.95
2022-10-19T20:39:58.696Z,3.13
2022-10-19T20:42:25.989Z,3.28
2022-10-19T20:44:54.793Z,3.60
2022-10-19T20:47:22.048Z,3.38
2022-10-19T20:49:49.354Z,3.67
2022-10-19T20:52:16.619Z,3.83
2022-10-19T20:54:43.917Z,3.92
2022-10-19T20:57:11.248Z,3.80
2022-10-19T20:59:39.658Z,4.28
2022-10-19T21:02:06.907Z,3.83
2022-10-19T21:04:35.358Z,3.17
2022-10-19T21:07:04.482Z,2.25
2022-10-19T21:09:31.893Z,2.88
2022-10-19T21:12:01.226Z,2.00
2022-10-19T21:14:29.179Z,2.00
2022-10-19T21:16:57.429Z,2.90
2022-10-19T21:19:25.614Z,2.10
2022-10-19T21:21:57.428Z,2.42
2022-10-19T21:24:28.753Z,1.67
2022-10-19T21:26:56.042Z,2.00
2022-10-19T21:29:23.324Z,2.00
2022-10-19T21:31:53.137Z,1.60
2022-10-19T21:34:21.709Z,2.40
2022-10-19T21:36:49.112Z,1.73
2022-10-19T21:39:16.608Z,1.60
2022-10-19T21:41:43.866Z,1.38
2022-10-19T21:44:11.416Z,1.30
2022-10-19T21:46:38.833Z,1.30
2022-10-19T21:49:06.067Z,1.20
2022-10-19T21:51:33.322Z,2.10
2022-10-19T21:54:01.188Z,1.50
2022-10-19T21:56:28.844Z,1.20
2022-10-19T21:58:56.336Z,1.58
2022-10-19T22:01:26.423Z,1.60
2022-10-19T22:03:57.344Z,2.40
2022-10-19T22:06:25.040Z,2.30
2022-10-19T22:08:52.486Z,2.47
2022-10-19T22:11:20.189Z,2.10
2022-10-19T22:13:47.534Z,2.00
2022-10-19T22:16:16.573Z,1.88
2022-10-19T22:18:44.333Z,4.35
2022-10-19T22:21:13.419Z,4.07
2022-10-19T22:23:40.970Z,5.47
2022-10-19T22:26:18.746Z,4.63
2022-10-19T22:28:46.289Z,3.95
2022-10-19T22:31:13.748Z,2.80
2022-10-19T22:33:41.036Z,2.65
2022-10-19T22:36:09.137Z,2.70
2022-10-19T22:38:36.493Z,3.10
2022-10-19T22:41:03.802Z,2.60
2022-10-19T22:43:31.087Z,2.42
2022-10-19T22:45:58.343Z,3.10
2022-10-19T22:48:25.594Z,3.33
2022-10-19T22:50:54.306Z,3.67
2022-10-19T22:53:22.916Z,3.25
2022-10-19T22:55:50.380Z,3.15
2022-10-19T22:58:18.280Z,2.50
2022-10-19T23:00:45.590Z,1.50
2022-10-19T23:03:12.870Z,1.00
2022-10-19T23:05:40.144Z,1.08
2022-10-19T23:08:07.419Z,1.30
2022-10-19T23:10:34.631Z,1.60
2022-10-19T23:13:02.176Z,1.30
2022-10-19T23:15:29.467Z,1.30
2022-10-19T23:17:56.779Z,1.08
2022-10-19T23:20:24.049Z,1.90
2022-10-19T23:22:51.423Z,1.65
2022-10-19T23:25:18.753Z,2.47
2022-10-19T23:27:46.053Z,2.42
2022-10-19T23:30:13.295Z,2.75
2022-10-19T23:32:40.574Z,3.65
2022-10-19T23:35:08.659Z,4.00
2022-10-19T23:37:36.572Z,3.33
2022-10-19T23:40:04.622Z,3.67
2022-10-19T23:42:31.903Z,3.10
2022-10-19T23:44:59.153Z,4.35
2022-10-19T23:47:26.431Z,3.80
2022-10-19T23:49:53.745Z,3.85
2022-10-19T23:52:21.072Z,4.05
2022-10-19T23:54:48.278Z,4.07
2022-10-19T23:57:15.501Z,4.05
2022-10-19T23:59:42.759Z,4.65
